AirNav   SIMCOM
 
 1172 users online  

M90 William Robert Johnston Municipal Airport
Mendota, California, USA


FAA INFORMATION EFFECTIVE 09 NOVEMBER 2017

Location

FAA Identifier: M90
Lat/Long: 36-45-31.0000N / 120-22-17.0000W
36-45.516667N / 120-22.283333W
36.7586111 / -120.3713889
(estimated)
Elevation: 162 ft. / 49 m (estimated)
Variation: 15E (1985)
Time zone: UTC -8 (UTC -7 during Daylight Saving Time)
Zip code: 93640

Airport Operations

Airport use: Open to the public
Activation date: 08/1957
Control tower: no
ARTCC: OAKLAND CENTER
FSS: RANCHO MURIETA FLIGHT SERVICE STATION
NOTAMs facility: RIU (NOTAM-D service available)
Attendance: UNATNDD
Pattern altitude: 1162 ft. MSL
Wind indicator: yes
Segmented circle: yes

Airport Communications

CTAF: 122.9
WX ASOS at MAE (18 nm NE): 134.725 (559-674-1781)

Nearby radio navigation aids

VOR radial/distance  VOR name  Freq  Var
PXNr066/19.8PANOCHE VORTAC112.6016E
HYPr162/27.7EL NIDO VOR/DME114.2015E
CZQr239/27.8CLOVIS VORTAC112.9015E
ROMr005/(39.7)PRIEST VOR110.0016E

Airport Services

Parking: tiedowns

Runway Information

Runway 15/33

Dimensions: 3499 x 50 ft. / 1066 x 15 m
Surface: asphalt, in fair condition
Weight bearing capacity: 
Single wheel: 12.5
RUNWAY 15  RUNWAY 33
Latitude: 36-45.798333N36-45.251500N
Longitude: 120-22.404667W120-22.177167W
Gradient: 0.1%0.1%
Traffic pattern: leftright
Displaced threshold: no777 ft.
Markings: basic, in fair conditionbasic, in fair condition
Runway end identifier lights: nono
Obstructions: none17 ft. bldg, 423 ft. from runway, 190 ft. left of centerline, 13:1 slope to clear
APCH RATIO TO DSPLCD THR 50:1.

Airport Ownership and Management from official FAA records

Ownership: Publicly-owned
Owner: CITY OF MENDOTA
643 QUINCE ST
MENDOTA, CA 93640-2334
Phone 559-655-4298
Manager: CHARLES JOHNSON
643 QUINCE ST
MENDOTA, CA 93640-2334
Phone (559) 630-2849
CITY MANAGER X 106.

Airport Operational Statistics

Aircraft operations: avg 77/week *
50% transient general aviation
50% local general aviation
* for 12-month period ending 12 July 2016

Additional Remarks

ARPT CLSD NIGHTS.
FOR CD CTC NORCAL APCH AT 916-361-0516.

Instrument Procedures

There are no published instrument procedures at M90.

Some nearby airports with instrument procedures:

F34 - Firebaugh Airport (8 nm NW)
KMAE - Madera Municipal Airport (18 nm NE)
KFCH - Fresno Chandler Executive Airport (27 nm E)
KLSN - Los Banos Municipal Airport (30 nm NW)
KFAT - Fresno Yosemite International Airport (31 nm E)
 
Loc | Ops | Rwys | IFR | FBO | Links
Com | Nav | Svcs | Stats | Notes


 
Area around M90 (William Robert Johnston Municipal Airport)
 
Road maps at: MapQuest Bing Google
 
Aerial photo
WARNING: Photo may not be current or correct
Aerial photo of M90 (William Robert Johnston Municipal Airport)
Do you have a better or more recent aerial photo of William Robert Johnston Municipal Airport that you would like to share? If so, please send us your photo.

 
Sectional chart

 
Airport distance calculator
Flying to William Robert Johnston Municipal Airport? Find the distance to fly.

From to M90

Sunrise and sunset
Times for 17-Nov-2017
 Local
(UTC-8)
 Zulu
(UTC)
Morning civil twilight06:1514:15
Sunrise06:4314:43
Sunset16:5000:50
Evening civil twilight17:1801:18

Current date and time
Zulu (UTC)  17-Nov-2017 22:12:44
Local (UTC-8)  17-Nov-2017 14:12:44
 
METAR
KMAE 
18nm NE 
172153Z AUTO 27009KT 10SM CLR 17/07 A3014 RMK AO2 SLP206 T01720067 TSNO
KFCH 
27nm E 
172155Z AUTO 30009KT 10SM CLR 17/06 A3013 RMK A01
KFAT 
32nm E 
172153Z 30007KT 10SM FEW040 17/06 A3014 RMK AO2 SLP202 CU TPG MTNS DSNT N-E-S T01720061
KMCE 
32nm N 
172153Z AUTO 30009KT 10SM CLR 16/06 A3013 RMK AO2 SLP204 T01610056
KNLC 
33nm SE 
172156Z 34012KT 10SM FEW028 BKN050 18/06 A3014 RMK AO2 SLPNO RH/44 T01830061 $
TAF
KFAT 
32nm E 
171751Z 1718/1818 32014KT P6SM BKN060 FM171900 31010KT P6SM SCT040 FM180300 32004KT P6SM SKC FM181000 VRB03KT 5SM BR SKC TEMPO 1813/1817 2SM BR
KMCE 
32nm N 
171751Z 1718/1818 32009KT P6SM SCT040 FM180100 32005KT P6SM SKC FM180600 VRB03KT 5SM BR SKC TEMPO 1810/1812 3SM BR FM181200 00000KT 2SM BR SKC TEMPO 1813/1817 1/4SM FG VV002
KNLC 
33nm SE 
1718/1815 33016KT 9999 FEW030 BKN040 540009 550903 532409 533309 QNH3012INS TEMPO 1718/1721 33018G25KT FM180000 35012G20KT 9999 FEW035 SCT065 531809 532707 QNH3006INS T19/1722Z T03/1814Z AMD 1840 FS30012
KMER 
39nm N 
171751Z 1718/1818 32009KT P6SM SCT040 FM180100 32005KT P6SM SKC FM180600 VRB03KT 5SM BR SKC TEMPO 1810/1812 3SM BR FM181200 00000KT 2SM BR SKC TEMPO 1813/1817 1/4SM FG VV002
NOTAMs
Click for the latest NOTAMs
NOTAMs are issued by the DoD/FAA and will open in a separate window not controlled by AirNav.

 

 
 

Would you like to see your business listed on this page?

 If your business provides an interesting product or service to pilots, flight crews, aircraft, or users of the William Robert Johnston Municipal Airport, you should consider listing it here.  To start the listing process, click on the button below
 
Add a business
 

Other Pages about William Robert Johnston Municipal Airport

Update a link
 
Copyright © AirNav, LLC. All rights reserved. Privacy Policy  Contact